15°C Temp
12°C Dewpoint
% Humidity
Temperature
10 KM/H
6 MPH
5 KTS
100°
Due East

Wind Speed
Partly Cloudy
Conditions
Pressure 1002.92 (hPa) - 29.62 (in)
Visibility 6.2 (mi) - 10.0 (km)

Current Conditions
LIRQ
Location 35(km)
Metar :LIRQ 272020Z 10005KT 9999 FEW040 15/12 Q1003
Tue 27th September 22:20 pm

Airport
  Metar Aviation API Data Provided by https://www.checkwx.com/ PHP scripts by weather34.com ©2022